Terminal Aerodrome Forecast
Issued by NWS Boston, MA

Home | Current Version | Previous Version | Text Only | Print | Product List | Glossary On
Versions: 1 2 3 4 5 6 7 8 9 10 11 12 13 14 15 16 17 18 19 20 21
000
FTUS41 KBOX 191120
TAFPVD
TAF
KPVD 191120Z 1912/2012 21004KT P6SM FEW005 BKN250
     FM191300 22005KT P6SM SCT250
     FM191600 21009KT P6SM FEW250
     FM200600 25006KT P6SM FEW250
     FM201100 29006KT P6SM SKC=

USA.gov is the U.S. government's official web portal to all federal, state and local government web resources and services.